sensor_id;sensor_type;location;lat;lon;timestamp;pressure;altitude;pressure_sealevel;temperature;humidity
55576;BME280;41437;45.478;9.116;2022-11-15T00:01:24;100258.63;;;6.57;100.00
55576;BME280;41437;45.478;9.116;2022-11-15T00:04:25;100244.34;;;6.54;100.00
55576;BME280;41437;45.478;9.116;2022-11-15T00:07:27;100239.69;;;6.55;100.00
55576;BME280;41437;45.478;9.116;2022-11-15T00:10:30;100218.22;;;6.52;100.00
55576;BME280;41437;45.478;9.116;2022-11-15T00:13:31;100208.34;;;6.51;100.00
55576;BME280;41437;45.478;9.116;2022-11-15T00:16:33;100213.38;;;6.54;100.00
55576;BME280;41437;45.478;9.116;2022-11-15T00:19:35;100210.66;;;6.54;100.00
55576;BME280;41437;45.478;9.116;2022-11-15T00:22:36;100199.44;;;6.37;100.00
55576;BME280;41437;45.478;9.116;2022-11-15T00:25:42;100216.97;;;6.29;100.00
55576;BME280;41437;45.478;9.116;2022-11-15T00:28:44;100216.00;;;6.17;100.00
55576;BME280;41437;45.478;9.116;2022-11-15T00:31:45;100210.25;;;6.00;100.00
55576;BME280;41437;45.478;9.116;2022-11-15T00:34:47;100212.41;;;5.92;100.00
55576;BME280;41437;45.478;9.116;2022-11-15T00:37:49;100218.34;;;5.82;100.00
55576;BME280;41437;45.478;9.116;2022-11-15T00:40:52;100219.22;;;5.76;100.00
55576;BME280;41437;45.478;9.116;2022-11-15T00:43:53;100205.34;;;5.77;100.00
55576;BME280;41437;45.478;9.116;2022-11-15T00:46:55;100208.63;;;5.86;100.00
55576;BME280;41437;45.478;9.116;2022-11-15T00:49:56;100205.66;;;5.94;100.00
55576;BME280;41437;45.478;9.116;2022-11-15T00:52:58;100217.41;;;6.01;100.00
55576;BME280;41437;45.478;9.116;2022-11-15T00:56:04;100211.47;;;6.04;100.00
55576;BME280;41437;45.478;9.116;2022-11-15T00:59:06;100211.03;;;6.08;100.00
55576;BME280;41437;45.478;9.116;2022-11-15T01:02:07;100206.19;;;6.10;100.00
55576;BME280;41437;45.478;9.116;2022-11-15T01:05:09;100205.53;;;6.14;100.00
55576;BME280;41437;45.478;9.116;2022-11-15T01:08:12;100200.22;;;6.19;100.00
55576;BME280;41437;45.478;9.116;2022-11-15T01:11:16;100193.91;;;6.19;100.00
55576;BME280;41437;45.478;9.116;2022-11-15T01:14:20;100197.00;;;6.22;100.00
55576;BME280;41437;45.478;9.116;2022-11-15T01:17:22;100195.59;;;6.20;100.00
55576;BME280;41437;45.478;9.116;2022-11-15T01:20:23;100179.56;;;6.23;100.00
55576;BME280;41437;45.478;9.116;2022-11-15T01:23:25;100181.22;;;6.24;100.00
55576;BME280;41437;45.478;9.116;2022-11-15T01:26:28;100187.78;;;6.23;100.00
55576;BME280;41437;45.478;9.116;2022-11-15T01:29:30;100187.38;;;6.20;100.00
55576;BME280;41437;45.478;9.116;2022-11-15T01:32:31;100175.16;;;5.97;100.00
55576;BME280;41437;45.478;9.116;2022-11-15T01:35:38;100171.59;;;5.90;100.00
55576;BME280;41437;45.478;9.116;2022-11-15T01:38:39;100172.41;;;5.91;100.00
55576;BME280;41437;45.478;9.116;2022-11-15T01:41:43;100179.19;;;5.88;100.00
55576;BME280;41437;45.478;9.116;2022-11-15T01:44:47;100173.75;;;5.82;100.00
55576;BME280;41437;45.478;9.116;2022-11-15T01:47:52;100178.00;;;5.77;100.00
55576;BME280;41437;45.478;9.116;2022-11-15T01:50:55;100162.81;;;5.82;100.00
55576;BME280;41437;45.478;9.116;2022-11-15T01:54:01;100162.38;;;5.85;100.00
55576;BME280;41437;45.478;9.116;2022-11-15T01:57:08;100171.00;;;5.88;100.00
55576;BME280;41437;45.478;9.116;2022-11-15T02:00:13;100159.59;;;5.91;100.00
55576;BME280;41437;45.478;9.116;2022-11-15T02:03:14;100153.13;;;5.86;100.00
55576;BME280;41437;45.478;9.116;2022-11-15T02:06:16;100155.84;;;5.92;100.00
55576;BME280;41437;45.478;9.116;2022-11-15T02:09:18;100138.47;;;5.73;100.00
55576;BME280;41437;45.478;9.116;2022-11-15T02:12:21;100152.28;;;5.85;100.00
55576;BME280;41437;45.478;9.116;2022-11-15T02:15:26;100140.91;;;5.88;100.00
55576;BME280;41437;45.478;9.116;2022-11-15T02:18:35;100145.56;;;5.81;100.00
55576;BME280;41437;45.478;9.116;2022-11-15T02:21:42;100139.03;;;5.82;100.00
55576;BME280;41437;45.478;9.116;2022-11-15T02:25:01;100127.94;;;5.77;100.00
55576;BME280;41437;45.478;9.116;2022-11-15T02:28:31;100117.50;;;5.67;100.00
55576;BME280;41437;45.478;9.116;2022-11-15T02:31:38;100123.97;;;5.73;100.00
55576;BME280;41437;45.478;9.116;2022-11-15T02:34:49;100125.22;;;5.77;100.00
55576;BME280;41437;45.478;9.116;2022-11-15T02:37:57;100121.69;;;5.70;100.00
55576;BME280;41437;45.478;9.116;2022-11-15T02:41:01;100125.22;;;5.77;100.00
55576;BME280;41437;45.478;9.116;2022-11-15T02:44:08;100124.78;;;5.80;100.00
55576;BME280;41437;45.478;9.116;2022-11-15T02:47:16;100118.47;;;5.79;100.00
55576;BME280;41437;45.478;9.116;2022-11-15T02:50:21;100124.69;;;5.93;100.00
55576;BME280;41437;45.478;9.116;2022-11-15T02:53:25;100121.97;;;5.93;100.00
55576;BME280;41437;45.478;9.116;2022-11-15T02:56:26;100118.56;;;5.91;100.00
55576;BME280;41437;45.478;9.116;2022-11-15T03:03:29;100101.22;;;5.79;100.00
55576;BME280;41437;45.478;9.116;2022-11-15T03:06:41;100090.56;;;5.71;100.00
55576;BME280;41437;45.478;9.116;2022-11-15T03:09:49;100095.69;;;5.61;100.00
55576;BME280;41437;45.478;9.116;2022-11-15T03:12:55;100093.22;;;5.52;100.00
55576;BME280;41437;45.478;9.116;2022-11-15T03:16:06;100101.25;;;5.47;100.00
55576;BME280;41437;45.478;9.116;2022-11-15T03:19:13;100105.03;;;5.46;100.00
55576;BME280;41437;45.478;9.116;2022-11-15T03:22:20;100085.88;;;5.53;100.00
55576;BME280;41437;45.478;9.116;2022-11-15T03:25:24;100089.78;;;5.64;100.00
55576;BME280;41437;45.478;9.116;2022-11-15T03:28:32;100081.72;;;5.69;100.00
55576;BME280;41437;45.478;9.116;2022-11-15T03:31:38;100084.16;;;5.84;100.00
55576;BME280;41437;45.478;9.116;2022-11-15T03:34:57;100076.28;;;5.94;100.00
55576;BME280;41437;45.478;9.116;2022-11-15T03:38:05;100080.66;;;6.01;100.00
55576;BME280;41437;45.478;9.116;2022-11-15T03:41:15;100072.22;;;6.03;100.00
55576;BME280;41437;45.478;9.116;2022-11-15T03:44:25;100061.84;;;6.05;100.00
55576;BME280;41437;45.478;9.116;2022-11-15T03:47:36;100075.88;;;6.15;100.00
55576;BME280;41437;45.478;9.116;2022-11-15T03:50:42;100069.56;;;6.15;100.00
55576;BME280;41437;45.478;9.116;2022-11-15T03:53:45;100065.53;;;6.17;100.00
55576;BME280;41437;45.478;9.116;2022-11-15T03:56:47;100071.09;;;6.29;100.00
55576;BME280;41437;45.478;9.116;2022-11-15T03:59:48;100058.09;;;6.24;100.00
55576;BME280;41437;45.478;9.116;2022-11-15T04:02:50;100049.25;;;6.22;100.00
55576;BME280;41437;45.478;9.116;2022-11-15T04:05:54;100054.53;;;6.24;100.00
55576;BME280;41437;45.478;9.116;2022-11-15T04:08:56;100052.53;;;6.31;100.00
55576;BME280;41437;45.478;9.116;2022-11-15T04:11:58;100050.28;;;6.28;100.00
55576;BME280;41437;45.478;9.116;2022-11-15T04:15:01;100047.16;;;6.24;100.00
55576;BME280;41437;45.478;9.116;2022-11-15T04:18:09;100049.78;;;6.13;100.00
55576;BME280;41437;45.478;9.116;2022-11-15T04:21:13;100047.06;;;6.13;100.00
55576;BME280;41437;45.478;9.116;2022-11-15T04:24:31;100015.34;;;6.05;100.00
55576;BME280;41437;45.478;9.116;2022-11-15T04:27:33;100034.75;;;6.22;100.00
55576;BME280;41437;45.478;9.116;2022-11-15T04:30:35;100009.59;;;6.13;100.00
55576;BME280;41437;45.478;9.116;2022-11-15T04:33:36;100015.25;;;6.18;100.00
55576;BME280;41437;45.478;9.116;2022-11-15T04:36:39;100040.69;;;6.37;100.00
55576;BME280;41437;45.478;9.116;2022-11-15T04:39:58;100010.59;;;6.19;100.00
55576;BME280;41437;45.478;9.116;2022-11-15T04:43:01;100008.31;;;6.16;100.00
55576;BME280;41437;45.478;9.116;2022-11-15T04:46:02;100017.44;;;6.10;100.00
55576;BME280;41437;45.478;9.116;2022-11-15T04:49:04;100026.09;;;6.07;100.00
55576;BME280;41437;45.478;9.116;2022-11-15T04:52:07;100008.28;;;5.79;100.00
55576;BME280;41437;45.478;9.116;2022-11-15T04:55:09;100015.88;;;5.95;100.00
55576;BME280;41437;45.478;9.116;2022-11-15T04:58:10;99999.16;;;5.85;100.00
55576;BME280;41437;45.478;9.116;2022-11-15T05:01:13;99969.75;;;5.80;100.00
55576;BME280;41437;45.478;9.116;2022-11-15T05:04:15;99986.28;;;5.92;100.00
55576;BME280;41437;45.478;9.116;2022-11-15T05:07:24;99977.94;;;6.06;100.00
55576;BME280;41437;45.478;9.116;2022-11-15T05:10:26;99982.03;;;6.15;100.00
55576;BME280;41437;45.478;9.116;2022-11-15T05:13:27;100000.63;;;6.43;100.00
55576;BME280;41437;45.478;9.116;2022-11-15T05:16:31;99984.66;;;6.40;100.00
55576;BME280;41437;45.478;9.116;2022-11-15T05:19:32;99989.59;;;6.49;100.00
55576;BME280;41437;45.478;9.116;2022-11-15T05:22:36;99983.28;;;6.49;100.00
55576;BME280;41437;45.478;9.116;2022-11-15T05:25:38;99976.22;;;6.41;100.00
55576;BME280;41437;45.478;9.116;2022-11-15T05:28:40;99998.84;;;6.67;100.00
55576;BME280;41437;45.478;9.116;2022-11-15T05:31:41;100004.44;;;6.72;100.00
55576;BME280;41437;45.478;9.116;2022-11-15T05:34:43;100004.59;;;6.77;100.00
55576;BME280;41437;45.478;9.116;2022-11-15T05:37:46;99984.97;;;6.62;100.00
55576;BME280;41437;45.478;9.116;2022-11-15T05:40:49;99984.06;;;6.68;100.00
55576;BME280;41437;45.478;9.116;2022-11-15T05:43:51;99985.59;;;6.64;100.00
55576;BME280;41437;45.478;9.116;2022-11-15T05:46:54;99989.22;;;6.76;100.00
55576;BME280;41437;45.478;9.116;2022-11-15T05:49:57;100010.00;;;6.95;100.00
55576;BME280;41437;45.478;9.116;2022-11-15T05:53:01;99961.72;;;6.71;100.00
55576;BME280;41437;45.478;9.116;2022-11-15T05:56:04;100000.25;;;6.99;100.00
55576;BME280;41437;45.478;9.116;2022-11-15T05:59:07;100005.88;;;7.04;100.00
55576;BME280;41437;45.478;9.116;2022-11-15T06:02:10;99964.59;;;6.76;100.00
55576;BME280;41437;45.478;9.116;2022-11-15T06:05:12;100016.00;;;7.04;100.00
55576;BME280;41437;45.478;9.116;2022-11-15T06:08:15;99987.50;;;6.93;100.00
55576;BME280;41437;45.478;9.116;2022-11-15T06:11:17;100015.78;;;7.05;100.00
55576;BME280;41437;45.478;9.116;2022-11-15T06:14:19;100014.41;;;6.96;100.00
55576;BME280;41437;45.478;9.116;2022-11-15T06:17:20;100009.88;;;6.90;100.00
55576;BME280;41437;45.478;9.116;2022-11-15T06:20:25;99982.44;;;6.78;100.00
55576;BME280;41437;45.478;9.116;2022-11-15T06:23:28;99985.34;;;6.84;100.00
55576;BME280;41437;45.478;9.116;2022-11-15T06:26:32;99987.00;;;6.85;100.00
55576;BME280;41437;45.478;9.116;2022-11-15T06:29:34;100017.53;;;7.00;100.00
55576;BME280;41437;45.478;9.116;2022-11-15T06:32:35;100014.09;;;7.04;100.00
55576;BME280;41437;45.478;9.116;2022-11-15T06:35:37;100003.31;;;6.91;100.00
55576;BME280;41437;45.478;9.116;2022-11-15T06:38:40;100030.72;;;6.91;100.00
55576;BME280;41437;45.478;9.116;2022-11-15T06:41:41;100001.47;;;6.73;100.00
55576;BME280;41437;45.478;9.116;2022-11-15T06:44:43;100018.84;;;6.97;100.00
55576;BME280;41437;45.478;9.116;2022-11-15T06:47:45;100007.13;;;6.90;100.00
55576;BME280;41437;45.478;9.116;2022-11-15T06:50:50;100027.09;;;7.09;100.00
55576;BME280;41437;45.478;9.116;2022-11-15T06:53:54;100022.22;;;7.11;100.00
55576;BME280;41437;45.478;9.116;2022-11-15T06:56:55;100004.53;;;6.95;100.00
55576;BME280;41437;45.478;9.116;2022-11-15T06:59:57;100006.34;;;7.01;100.00
55576;BME280;41437;45.478;9.116;2022-11-15T07:02:59;100037.84;;;7.22;100.00
55576;BME280;41437;45.478;9.116;2022-11-15T07:06:02;100037.00;;;7.22;100.00
55576;BME280;41437;45.478;9.116;2022-11-15T07:09:05;100029.03;;;7.20;100.00
55576;BME280;41437;45.478;9.116;2022-11-15T07:12:09;99997.00;;;6.91;100.00
55576;BME280;41437;45.478;9.116;2022-11-15T07:15:11;100003.56;;;6.90;100.00
55576;BME280;41437;45.478;9.116;2022-11-15T07:18:13;100032.41;;;6.92;100.00
55576;BME280;41437;45.478;9.116;2022-11-15T07:21:14;100032.25;;;6.87;100.00
55576;BME280;41437;45.478;9.116;2022-11-15T07:24:17;99989.13;;;6.52;100.00
55576;BME280;41437;45.478;9.116;2022-11-15T07:27:19;100013.91;;;6.58;100.00
55576;BME280;41437;45.478;9.116;2022-11-15T07:30:21;100010.09;;;6.59;100.00
55576;BME280;41437;45.478;9.116;2022-11-15T07:33:23;100020.00;;;6.60;100.00
55576;BME280;41437;45.478;9.116;2022-11-15T07:36:24;99965.44;;;6.28;100.00
55576;BME280;41437;45.478;9.116;2022-11-15T07:39:27;100004.31;;;6.48;100.00
55576;BME280;41437;45.478;9.116;2022-11-15T07:42:30;99991.19;;;6.39;100.00
55576;BME280;41437;45.478;9.116;2022-11-15T07:45:49;100025.59;;;6.65;100.00
55576;BME280;41437;45.478;9.116;2022-11-15T07:48:51;99995.94;;;6.62;100.00
55576;BME280;41437;45.478;9.116;2022-11-15T07:51:53;100015.09;;;6.80;100.00
55576;BME280;41437;45.478;9.116;2022-11-15T07:54:56;99990.25;;;6.63;100.00
55576;BME280;41437;45.478;9.116;2022-11-15T07:58:01;100028.91;;;6.85;100.00
55576;BME280;41437;45.478;9.116;2022-11-15T08:01:03;100024.19;;;6.92;100.00
55576;BME280;41437;45.478;9.116;2022-11-15T08:04:10;100016.63;;;7.06;100.00
55576;BME280;41437;45.478;9.116;2022-11-15T08:07:11;100024.25;;;7.16;100.00
55576;BME280;41437;45.478;9.116;2022-11-15T08:10:14;100007.44;;;7.12;100.00
55576;BME280;41437;45.478;9.116;2022-11-15T08:13:22;100019.16;;;7.19;100.00
55576;BME280;41437;45.478;9.116;2022-11-15T08:16:23;100001.25;;;7.17;100.00
55576;BME280;41437;45.478;9.116;2022-11-15T08:19:25;100016.28;;;7.26;100.00
55576;BME280;41437;45.478;9.116;2022-11-15T08:22:27;100016.91;;;7.28;100.00
55576;BME280;41437;45.478;9.116;2022-11-15T08:25:33;100017.88;;;7.34;100.00
55576;BME280;41437;45.478;9.116;2022-11-15T08:28:35;100018.22;;;7.37;100.00
55576;BME280;41437;45.478;9.116;2022-11-15T08:31:37;100016.91;;;7.40;100.00
55576;BME280;41437;45.478;9.116;2022-11-15T08:34:39;100013.81;;;7.48;100.00
55576;BME280;41437;45.478;9.116;2022-11-15T08:37:40;100015.84;;;7.52;100.00
55576;BME280;41437;45.478;9.116;2022-11-15T08:40:43;100017.31;;;7.55;100.00
55576;BME280;41437;45.478;9.116;2022-11-15T08:43:45;100015.28;;;7.62;100.00
55576;BME280;41437;45.478;9.116;2022-11-15T08:46:46;100008.94;;;7.62;100.00
55576;BME280;41437;45.478;9.116;2022-11-15T08:49:49;100006.09;;;7.68;100.00
55576;BME280;41437;45.478;9.116;2022-11-15T08:52:51;100004.66;;;7.77;100.00
55576;BME280;41437;45.478;9.116;2022-11-15T08:55:53;100010.16;;;7.89;100.00
55576;BME280;41437;45.478;9.116;2022-11-15T08:58:55;100013.97;;;8.00;100.00
55576;BME280;41437;45.478;9.116;2022-11-15T09:01:57;100018.25;;;8.07;100.00
55576;BME280;41437;45.478;9.116;2022-11-15T09:04:58;100021.59;;;8.10;100.00
55576;BME280;41437;45.478;9.116;2022-11-15T09:08:00;100027.22;;;8.15;100.00
55576;BME280;41437;45.478;9.116;2022-11-15T09:11:04;100023.84;;;8.13;100.00
55576;BME280;41437;45.478;9.116;2022-11-15T09:14:06;100022.31;;;8.17;100.00
55576;BME280;41437;45.478;9.116;2022-11-15T09:17:08;100025.66;;;8.19;100.00
55576;BME280;41437;45.478;9.116;2022-11-15T09:20:11;100014.69;;;8.19;100.00
55576;BME280;41437;45.478;9.116;2022-11-15T09:23:13;100015.34;;;8.26;100.00
55576;BME280;41437;45.478;9.116;2022-11-15T09:26:16;100015.81;;;8.35;100.00
55576;BME280;41437;45.478;9.116;2022-11-15T09:29:17;100017.66;;;8.41;100.00
55576;BME280;41437;45.478;9.116;2022-11-15T09:32:19;100019.50;;;8.52;100.00
55576;BME280;41437;45.478;9.116;2022-11-15T09:35:23;100014.72;;;8.59;100.00
55576;BME280;41437;45.478;9.116;2022-11-15T09:38:24;100020.13;;;8.54;100.00
55576;BME280;41437;45.478;9.116;2022-11-15T09:41:42;100019.88;;;8.55;100.00
55576;BME280;41437;45.478;9.116;2022-11-15T09:44:59;100019.03;;;8.55;100.00
55576;BME280;41437;45.478;9.116;2022-11-15T09:51:31;100010.19;;;8.53;100.00
55576;BME280;41437;45.478;9.116;2022-11-15T09:54:35;100012.00;;;8.47;100.00
55576;BME280;41437;45.478;9.116;2022-11-15T09:57:42;100017.22;;;8.61;100.00
55576;BME280;41437;45.478;9.116;2022-11-15T10:00:47;100017.31;;;8.66;100.00
55576;BME280;41437;45.478;9.116;2022-11-15T10:03:55;100020.06;;;8.66;100.00
55576;BME280;41437;45.478;9.116;2022-11-15T10:07:03;100012.06;;;8.64;100.00
55576;BME280;41437;45.478;9.116;2022-11-15T10:10:14;99997.88;;;8.67;100.00
55576;BME280;41437;45.478;9.116;2022-11-15T10:13:22;99997.78;;;8.50;100.00
55576;BME280;41437;45.478;9.116;2022-11-15T10:16:43;99983.00;;;8.40;100.00
55576;BME280;41437;45.478;9.116;2022-11-15T10:19:54;99984.41;;;8.54;100.00
55576;BME280;41437;45.478;9.116;2022-11-15T10:23:00;99991.63;;;8.72;100.00
55576;BME280;41437;45.478;9.116;2022-11-15T10:26:08;99976.91;;;8.78;100.00
55576;BME280;41437;45.478;9.116;2022-11-15T10:29:18;99973.31;;;8.77;100.00
55576;BME280;41437;45.478;9.116;2022-11-15T10:32:20;99964.16;;;8.72;100.00
55576;BME280;41437;45.478;9.116;2022-11-15T10:35:25;99960.16;;;8.63;100.00
55576;BME280;41437;45.478;9.116;2022-11-15T10:38:26;99956.13;;;8.53;100.00
55576;BME280;41437;45.478;9.116;2022-11-15T10:41:36;99952.59;;;8.41;100.00
55576;BME280;41437;45.478;9.116;2022-11-15T10:44:42;99949.94;;;8.35;100.00
55576;BME280;41437;45.478;9.116;2022-11-15T10:47:44;99951.00;;;8.34;100.00
55576;BME280;41437;45.478;9.116;2022-11-15T10:50:47;99945.78;;;8.32;100.00
55576;BME280;41437;45.478;9.116;2022-11-15T10:53:49;99938.72;;;8.36;100.00
55576;BME280;41437;45.478;9.116;2022-11-15T10:56:54;99929.31;;;8.32;100.00
55576;BME280;41437;45.478;9.116;2022-11-15T11:00:00;99923.00;;;8.31;100.00
55576;BME280;41437;45.478;9.116;2022-11-15T11:03:03;99917.72;;;8.30;100.00
55576;BME280;41437;45.478;9.116;2022-11-15T11:06:10;99915.06;;;8.35;100.00
55576;BME280;41437;45.478;9.116;2022-11-15T11:09:31;99897.19;;;8.32;100.00
55576;BME280;41437;45.478;9.116;2022-11-15T11:12:33;99911.63;;;8.40;100.00
55576;BME280;41437;45.478;9.116;2022-11-15T11:15:37;99904.03;;;8.59;100.00
55576;BME280;41437;45.478;9.116;2022-11-15T11:18:44;99890.41;;;8.64;100.00
55576;BME280;41437;45.478;9.116;2022-11-15T11:21:57;99886.56;;;8.65;100.00
55576;BME280;41437;45.478;9.116;2022-11-15T11:25:11;99888.16;;;8.77;100.00
55576;BME280;41437;45.478;9.116;2022-11-15T11:28:30;99877.09;;;8.89;100.00
55576;BME280;41437;45.478;9.116;2022-11-15T11:31:41;99874.69;;;8.93;100.00
55576;BME280;41437;45.478;9.116;2022-11-15T11:34:56;99869.50;;;8.96;100.00
55576;BME280;41437;45.478;9.116;2022-11-15T11:38:11;99866.19;;;8.94;100.00
55576;BME280;41437;45.478;9.116;2022-11-15T11:41:26;99867.84;;;8.95;100.00
55576;BME280;41437;45.478;9.116;2022-11-15T11:44:38;99864.78;;;8.92;100.00
55576;BME280;41437;45.478;9.116;2022-11-15T11:47:47;99855.28;;;8.99;100.00
55576;BME280;41437;45.478;9.116;2022-11-15T11:50:49;99846.63;;;9.07;100.00
55576;BME280;41437;45.478;9.116;2022-11-15T11:54:05;99837.63;;;9.12;100.00
55576;BME280;41437;45.478;9.116;2022-11-15T11:57:14;99840.44;;;9.17;100.00
55576;BME280;41437;45.478;9.116;2022-11-15T12:00:19;99836.88;;;9.17;100.00
55576;BME280;41437;45.478;9.116;2022-11-15T12:03:26;99833.03;;;9.18;100.00
55576;BME280;41437;45.478;9.116;2022-11-15T12:06:32;99831.44;;;9.22;100.00
55576;BME280;41437;45.478;9.116;2022-11-15T12:09:38;99835.78;;;9.18;100.00
55576;BME280;41437;45.478;9.116;2022-11-15T12:12:48;99834.13;;;9.00;100.00
55576;BME280;41437;45.478;9.116;2022-11-15T12:15:53;99834.47;;;9.03;100.00
55576;BME280;41437;45.478;9.116;2022-11-15T12:19:02;99825.53;;;9.13;100.00
55576;BME280;41437;45.478;9.116;2022-11-15T12:22:09;99819.06;;;9.02;100.00
55576;BME280;41437;45.478;9.116;2022-11-15T12:25:18;99816.53;;;9.01;100.00
55576;BME280;41437;45.478;9.116;2022-11-15T12:28:34;99813.63;;;9.07;100.00
55576;BME280;41437;45.478;9.116;2022-11-15T12:31:41;99808.63;;;9.04;100.00
55576;BME280;41437;45.478;9.116;2022-11-15T12:34:48;99786.50;;;8.94;100.00
55576;BME280;41437;45.478;9.116;2022-11-15T12:37:51;99802.16;;;9.11;100.00
55576;BME280;41437;45.478;9.116;2022-11-15T12:41:22;99801.00;;;9.06;100.00
55576;BME280;41437;45.478;9.116;2022-11-15T12:44:56;99781.16;;;8.88;100.00
55576;BME280;41437;45.478;9.116;2022-11-15T12:52:07;99774.28;;;8.85;100.00
55576;BME280;41437;45.478;9.116;2022-11-15T12:55:31;99764.69;;;8.88;100.00
55576;BME280;41437;45.478;9.116;2022-11-15T12:58:41;99762.19;;;9.03;100.00
55576;BME280;41437;45.478;9.116;2022-11-15T13:01:58;99756.22;;;8.89;100.00
55576;BME280;41437;45.478;9.116;2022-11-15T13:05:50;99757.31;;;8.88;100.00
55576;BME280;41437;45.478;9.116;2022-11-15T13:08:49;99752.22;;;8.80;100.00
55576;BME280;41437;45.478;9.116;2022-11-15T13:11:51;99747.91;;;8.84;100.00
55576;BME280;41437;45.478;9.116;2022-11-15T13:14:54;99754.03;;;8.91;100.00
55576;BME280;41437;45.478;9.116;2022-11-15T13:17:56;99751.22;;;8.86;100.00
55576;BME280;41437;45.478;9.116;2022-11-15T13:20:58;99718.44;;;8.79;100.00
55576;BME280;41437;45.478;9.116;2022-11-15T13:24:02;99732.25;;;8.85;100.00
55576;BME280;41437;45.478;9.116;2022-11-15T13:27:10;99730.38;;;8.90;100.00
55576;BME280;41437;45.478;9.116;2022-11-15T13:30:20;99725.72;;;8.91;100.00
55576;BME280;41437;45.478;9.116;2022-11-15T13:33:25;99721.06;;;8.91;100.00
55576;BME280;41437;45.478;9.116;2022-11-15T13:36:31;99722.31;;;8.84;100.00
55576;BME280;41437;45.478;9.116;2022-11-15T13:39:35;99711.25;;;8.78;100.00
55576;BME280;41437;45.478;9.116;2022-11-15T13:42:38;99711.78;;;8.75;100.00
55576;BME280;41437;45.478;9.116;2022-11-15T13:45:40;99714.06;;;8.84;100.00
55576;BME280;41437;45.478;9.116;2022-11-15T13:48:43;99712.56;;;8.93;100.00
55576;BME280;41437;45.478;9.116;2022-11-15T13:51:47;99717.16;;;8.87;100.00
55576;BME280;41437;45.478;9.116;2022-11-15T13:54:57;99706.69;;;8.84;100.00
55576;BME280;41437;45.478;9.116;2022-11-15T13:58:03;99706.47;;;8.91;100.00
55576;BME280;41437;45.478;9.116;2022-11-15T14:01:06;99707.97;;;8.98;100.00
55576;BME280;41437;45.478;9.116;2022-11-15T14:04:11;99702.97;;;8.95;100.00
55576;BME280;41437;45.478;9.116;2022-11-15T14:07:17;99696.66;;;8.95;100.00
55576;BME280;41437;45.478;9.116;2022-11-15T14:10:28;99695.38;;;9.02;100.00
55576;BME280;41437;45.478;9.116;2022-11-15T14:13:31;99690.41;;;8.99;100.00
55576;BME280;41437;45.478;9.116;2022-11-15T14:16:34;99684.72;;;9.06;100.00
55576;BME280;41437;45.478;9.116;2022-11-15T14:19:40;99686.06;;;9.03;100.00
55576;BME280;41437;45.478;9.116;2022-11-15T14:22:51;99681.06;;;9.00;100.00
55576;BME280;41437;45.478;9.116;2022-11-15T14:25:55;99680.75;;;8.97;100.00
55576;BME280;41437;45.478;9.116;2022-11-15T14:29:23;99666.75;;;8.98;100.00
55576;BME280;41437;45.478;9.116;2022-11-15T14:32:27;99666.16;;;8.96;100.00
55576;BME280;41437;45.478;9.116;2022-11-15T14:35:28;99661.81;;;9.00;100.00
55576;BME280;41437;45.478;9.116;2022-11-15T14:38:30;99664.91;;;9.04;100.00
55576;BME280;41437;45.478;9.116;2022-11-15T14:41:36;99673.97;;;9.04;100.00
55576;BME280;41437;45.478;9.116;2022-11-15T14:44:38;99672.38;;;9.09;100.00
55576;BME280;41437;45.478;9.116;2022-11-15T14:47:41;99671.28;;;9.10;100.00
55576;BME280;41437;45.478;9.116;2022-11-15T14:50:43;99664.97;;;9.09;100.00
55576;BME280;41437;45.478;9.116;2022-11-15T14:53:46;99661.31;;;9.03;100.00
55576;BME280;41437;45.478;9.116;2022-11-15T14:56:49;99677.88;;;9.09;100.00
55576;BME280;41437;45.478;9.116;2022-11-15T14:59:50;99662.81;;;9.11;100.00
55576;BME280;41437;45.478;9.116;2022-11-15T15:02:53;99660.88;;;9.12;100.00
55576;BME280;41437;45.478;9.116;2022-11-15T15:05:55;99661.97;;;9.11;100.00
55576;BME280;41437;45.478;9.116;2022-11-15T15:08:56;99652.91;;;9.10;100.00
55576;BME280;41437;45.478;9.116;2022-11-15T15:12:00;99651.97;;;9.04;100.00
55576;BME280;41437;45.478;9.116;2022-11-15T15:15:02;99642.09;;;9.03;100.00
55576;BME280;41437;45.478;9.116;2022-11-15T15:18:05;99636.59;;;9.03;100.00
55576;BME280;41437;45.478;9.116;2022-11-15T15:21:14;99633.78;;;8.98;100.00
55576;BME280;41437;45.478;9.116;2022-11-15T15:24:18;99626.91;;;9.01;100.00
55576;BME280;41437;45.478;9.116;2022-11-15T15:27:21;99629.16;;;9.04;100.00
55576;BME280;41437;45.478;9.116;2022-11-15T15:30:24;99630.59;;;9.06;100.00
55576;BME280;41437;45.478;9.116;2022-11-15T15:33:26;99619.78;;;9.00;100.00
55576;BME280;41437;45.478;9.116;2022-11-15T15:36:27;99596.91;;;8.94;100.00
55576;BME280;41437;45.478;9.116;2022-11-15T15:39:29;99620.94;;;9.04;100.00
55576;BME280;41437;45.478;9.116;2022-11-15T15:42:35;99619.00;;;9.04;100.00
55576;BME280;41437;45.478;9.116;2022-11-15T15:45:37;99628.16;;;9.10;100.00
55576;BME280;41437;45.478;9.116;2022-11-15T15:48:39;99617.41;;;9.09;100.00
55576;BME280;41437;45.478;9.116;2022-11-15T15:51:41;99611.28;;;9.01;100.00
55576;BME280;41437;45.478;9.116;2022-11-15T15:54:42;99614.03;;;9.01;100.00
55576;BME280;41437;45.478;9.116;2022-11-15T15:57:46;99610.97;;;8.98;100.00
55576;BME280;41437;45.478;9.116;2022-11-15T16:00:47;99604.66;;;8.97;100.00
55576;BME280;41437;45.478;9.116;2022-11-15T16:03:49;99599.97;;;8.98;100.00
55576;BME280;41437;45.478;9.116;2022-11-15T16:06:51;99601.06;;;8.97;100.00
55576;BME280;41437;45.478;9.116;2022-11-15T16:09:55;99597.47;;;8.96;100.00
55576;BME280;41437;45.478;9.116;2022-11-15T16:13:04;99598.50;;;8.90;100.00
55576;BME280;41437;45.478;9.116;2022-11-15T16:16:09;99613.84;;;8.86;100.00
55576;BME280;41437;45.478;9.116;2022-11-15T16:19:14;99613.91;;;8.91;100.00
55576;BME280;41437;45.478;9.116;2022-11-15T16:22:15;99610.31;;;8.91;100.00
55576;BME280;41437;45.478;9.116;2022-11-15T16:25:17;99604.44;;;8.82;100.00